createdAt,value
2019-04-11T00:02:25.390Z,64.70
2019-04-11T00:05:28.608Z,65.40
2019-04-11T00:08:32.185Z,65.70
2019-04-11T00:11:35.780Z,65.60
2019-04-11T00:14:40.085Z,65.20
2019-04-11T00:17:43.881Z,65.90
2019-04-11T00:20:46.966Z,66.70
2019-04-11T00:23:50.644Z,66.90
2019-04-11T00:26:54.903Z,66.10
2019-04-11T00:29:59.712Z,66.00
2019-04-11T00:33:02.655Z,66.20
2019-04-11T00:36:06.362Z,67.60
2019-04-11T00:39:11.533Z,67.70
2019-04-11T00:42:14.595Z,67.90
2019-04-11T00:45:17.618Z,67.90
2019-04-11T00:48:21.697Z,67.90
2019-04-11T00:51:25.701Z,67.70
2019-04-11T00:54:29.056Z,67.40
2019-04-11T00:57:33.785Z,67.80
2019-04-11T01:00:37.087Z,67.60
2019-04-11T01:03:41.583Z,67.60
2019-04-11T01:06:44.840Z,67.90
2019-04-11T01:09:48.573Z,66.80
2019-04-11T01:12:51.615Z,67.50
2019-04-11T01:16:03.058Z,67.80
2019-04-11T01:19:06.692Z,68.20
2019-04-11T01:22:10.049Z,68.40
2019-04-11T01:25:14.708Z,68.30
2019-04-11T01:28:18.565Z,68.40
2019-04-11T01:31:23.930Z,68.30
2019-04-11T01:34:26.877Z,68.40
2019-04-11T01:37:31.426Z,68.80
2019-04-11T01:40:36.083Z,68.30
2019-04-11T01:43:41.031Z,67.60
2019-04-11T01:46:44.445Z,68.50
2019-04-11T01:49:48.237Z,68.40
2019-04-11T01:52:51.346Z,67.40
2019-04-11T01:55:54.265Z,67.80
2019-04-11T01:58:59.322Z,68.80
2019-04-11T02:02:40.822Z,68.40
2019-04-11T02:05:43.855Z,68.20
2019-04-11T02:09:01.831Z,69.30
2019-04-11T02:12:06.866Z,69.60
2019-04-11T02:15:10.278Z,70.00
2019-04-11T02:18:13.708Z,68.60
2019-04-11T02:21:17.917Z,68.80
2019-04-11T02:24:56.305Z,69.40
2019-04-11T02:28:01.519Z,68.80
2019-04-11T02:31:09.068Z,69.80
2019-04-11T02:34:11.837Z,69.60
2019-04-11T02:37:17.356Z,69.80
2019-04-11T02:40:22.934Z,69.60
2019-04-11T02:43:27.389Z,69.60
2019-04-11T02:46:38.517Z,69.90
2019-04-11T02:49:36.033Z,69.60
2019-04-11T02:52:40.908Z,69.80
2019-04-11T02:55:46.583Z,69.90
2019-04-11T02:58:50.994Z,69.90
2019-04-11T03:01:55.828Z,70.30
2019-04-11T03:05:00.437Z,70.30
2019-04-11T03:08:09.216Z,70.80
2019-04-11T03:11:10.605Z,70.40
2019-04-11T03:14:16.375Z,71.30
2019-04-11T03:17:25.005Z,70.60
2019-04-11T03:20:34.490Z,70.20
2019-04-11T03:23:33.216Z,70.20
2019-04-11T03:26:37.864Z,70.10
2019-04-11T03:29:42.970Z,70.70
2019-04-11T03:33:49.614Z,70.20
2019-04-11T03:36:43.823Z,70.40
2019-04-11T03:39:15.342Z,70.60
2019-04-11T03:42:16.924Z,70.70
2019-04-11T03:45:40.102Z,71.20
2019-04-11T03:48:30.687Z,70.90
2019-04-11T03:51:21.019Z,70.80
2019-04-11T03:54:25.266Z,70.30
2019-04-11T03:57:29.897Z,70.50
2019-04-11T04:00:36.360Z,70.70
2019-04-11T04:03:39.347Z,71.10
2019-04-11T04:06:43.439Z,71.20
2019-04-11T04:09:49.021Z,71.90
2019-04-11T04:12:53.667Z,71.60
2019-04-11T04:16:15.287Z,71.10
2019-04-11T04:19:20.508Z,71.40
2019-04-11T04:22:32.287Z,72.40
2019-04-11T04:25:36.809Z,71.70
2019-04-11T04:28:41.016Z,71.60
2019-04-11T04:31:44.246Z,70.90
2019-04-11T04:34:49.083Z,70.80
2019-04-11T04:37:52.497Z,71.40
2019-04-11T04:41:13.594Z,71.00
2019-04-11T04:44:04.591Z,71.40
2019-04-11T04:47:16.492Z,71.20
2019-04-11T04:50:14.926Z,71.20
2019-04-11T04:53:18.080Z,71.90
2019-04-11T04:56:27.058Z,71.40
2019-04-11T04:59:28.311Z,71.80
2019-04-11T05:02:35.404Z,71.40
2019-04-11T05:05:38.965Z,72.30
2019-04-11T05:08:43.093Z,72.20
2019-04-11T05:11:46.780Z,72.20
2019-04-11T05:14:51.814Z,72.40
2019-04-11T05:17:55.312Z,73.10
2019-04-11T05:20:58.971Z,72.30
2019-04-11T05:24:02.421Z,72.40
2019-04-11T05:27:06.238Z,72.80
2019-04-11T05:30:09.553Z,73.00
2019-04-11T05:33:13.620Z,73.00
2019-04-11T05:36:16.654Z,73.40
2019-04-11T05:39:20.025Z,73.60
2019-04-11T05:42:26.414Z,74.10
2019-04-11T05:45:28.303Z,74.00
2019-04-11T05:48:47.140Z,74.10
2019-04-11T05:51:58.799Z,75.00
2019-04-11T05:55:08.269Z,74.90
2019-04-11T05:58:14.096Z,74.50
2019-04-11T06:01:22.284Z,74.20
2019-04-11T06:04:36.355Z,74.70
2019-04-11T06:07:50.761Z,75.80
2019-04-11T06:11:17.262Z,75.50
2019-04-11T06:14:45.077Z,75.10
2019-04-11T06:17:48.568Z,75.00
2019-04-11T06:20:53.622Z,75.90
2019-04-11T06:24:16.338Z,75.90
2019-04-11T06:27:45.562Z,75.80
2019-04-11T06:31:11.883Z,76.10
2019-04-11T06:34:15.548Z,76.60
2019-04-11T06:37:36.116Z,77.40
2019-04-11T06:40:50.993Z,77.40
2019-04-11T06:44:17.085Z,76.80
2019-04-11T06:47:43.079Z,77.20
2019-04-11T06:51:00.056Z,77.00
2019-04-11T06:54:19.040Z,77.00
2019-04-11T06:57:23.833Z,76.60
2019-04-11T07:00:27.327Z,77.30
2019-04-11T07:03:33.952Z,77.60
2019-04-11T07:06:38.347Z,76.80
2019-04-11T07:10:02.167Z,76.80
2019-04-11T07:13:14.275Z,76.90
2019-04-11T07:16:18.523Z,75.00
2019-04-11T07:19:48.026Z,76.80
2019-04-11T07:23:09.610Z,75.80
2019-04-11T07:26:45.747Z,76.80
2019-04-11T07:30:15.723Z,76.10
2019-04-11T07:33:54.190Z,75.50
2019-04-11T07:37:23.608Z,76.40
2019-04-11T07:40:45.827Z,73.80
2019-04-11T07:43:49.988Z,73.80
2019-04-11T07:47:13.595Z,72.60
2019-04-11T07:50:11.484Z,74.90
2019-04-11T07:53:15.805Z,75.00
2019-04-11T07:56:48.524Z,73.70
2019-04-11T08:00:10.530Z,72.80
2019-04-11T08:03:32.558Z,71.50
2019-04-11T08:06:54.298Z,72.70
2019-04-11T08:10:02.603Z,70.90
2019-04-11T08:13:10.260Z,70.50
2019-04-11T08:16:32.993Z,70.60
2019-04-11T08:19:55.356Z,69.50
2019-04-11T08:23:09.614Z,69.30
2019-04-11T08:26:32.277Z,69.70
2019-04-11T08:29:36.001Z,68.10
2019-04-11T08:32:53.803Z,68.80
2019-04-11T08:36:22.427Z,69.40
2019-04-11T08:39:33.245Z,68.50
2019-04-11T08:42:57.005Z,68.60
2019-04-11T08:46:04.681Z,67.60
2019-04-11T08:49:15.257Z,64.60
2019-04-11T08:52:32.572Z,66.40
2019-04-11T08:55:48.575Z,67.00
2019-04-11T08:59:46.139Z,66.20
2019-04-11T09:02:59.961Z,68.00
2019-04-11T09:06:12.551Z,69.00
2019-04-11T09:09:31.398Z,67.30
2019-04-11T09:12:36.409Z,66.90
2019-04-11T09:15:57.753Z,65.50
2019-04-11T09:19:06.323Z,63.80
2019-04-11T09:22:27.493Z,63.70
2019-04-11T09:25:51.672Z,63.50
2019-04-11T09:28:56.236Z,64.20
2019-04-11T09:32:18.148Z,63.00
2019-04-11T09:35:27.600Z,63.00
2019-04-11T09:38:30.869Z,63.00
2019-04-11T09:41:52.916Z,62.90
2019-04-11T09:45:03.552Z,61.70
2019-04-11T09:48:42.370Z,63.80
2019-04-11T09:52:02.614Z,61.20
2019-04-11T09:55:31.251Z,60.50
2019-04-11T09:58:35.684Z,59.90
2019-04-11T10:01:58.158Z,61.20
2019-04-11T10:05:02.770Z,60.10
2019-04-11T10:08:24.631Z,60.20
2019-04-11T10:11:54.915Z,60.90
2019-04-11T10:14:58.785Z,59.00
2019-04-11T10:18:27.701Z,58.30
2019-04-11T10:21:30.855Z,58.10
2019-04-11T10:24:51.446Z,58.30
2019-04-11T10:28:29.754Z,57.30
2019-04-11T10:31:35.347Z,58.30
2019-04-11T10:35:08.259Z,55.50
2019-04-11T10:38:12.569Z,57.20
2019-04-11T10:41:44.355Z,55.40
2019-04-11T10:45:06.722Z,55.20
2019-04-11T10:48:10.272Z,56.10
2019-04-11T10:51:23.169Z,59.10
2019-04-11T10:54:26.469Z,57.10
2019-04-11T10:57:42.858Z,54.30
2019-04-11T11:00:53.654Z,52.90
2019-04-11T11:04:09.530Z,52.90
2019-04-11T11:07:16.817Z,53.50
2019-04-11T11:10:23.803Z,50.80
2019-04-11T11:13:52.435Z,54.10
2019-04-11T11:17:02.483Z,53.00
2019-04-11T11:20:38.511Z,53.90
2019-04-11T11:23:56.932Z,52.20
2019-04-11T11:27:02.865Z,52.70
2019-04-11T11:30:25.025Z,54.10
2019-04-11T11:33:30.216Z,52.30
2019-04-11T11:36:54.470Z,53.40
2019-04-11T11:40:19.642Z,51.70
2019-04-11T11:43:30.920Z,52.30
2019-04-11T11:46:48.408Z,52.20
2019-04-11T11:49:58.692Z,52.40
2019-04-11T11:53:25.795Z,53.00
2019-04-11T11:56:28.301Z,53.80
2019-04-11T11:59:56.908Z,53.30
2019-04-11T12:03:17.416Z,51.00
2019-04-11T12:06:23.565Z,51.70
2019-04-11T12:09:55.359Z,52.30
2019-04-11T12:13:13.333Z,53.60
2019-04-11T12:16:21.921Z,50.40
2019-04-11T12:19:42.635Z,51.60
2019-04-11T12:22:40.558Z,52.50
2019-04-11T12:25:44.988Z,49.30
2019-04-11T12:29:06.473Z,50.90
2019-04-11T12:32:14.509Z,50.60
2019-04-11T12:35:57.880Z,52.50
2019-04-11T12:39:33.088Z,52.60
2019-04-11T12:42:37.929Z,53.10
2019-04-11T12:46:12.488Z,50.80
2019-04-11T12:49:24.736Z,50.70
2019-04-11T12:52:50.897Z,51.90
2019-04-11T12:56:19.382Z,51.00
2019-04-11T12:59:26.283Z,50.00
2019-04-11T13:02:47.454Z,52.30
2019-04-11T13:05:53.234Z,51.10
2019-04-11T13:09:14.148Z,49.30
2019-04-11T13:12:34.698Z,50.10
2019-04-11T13:15:40.375Z,50.80
2019-04-11T13:19:02.931Z,50.90
2019-04-11T13:22:10.935Z,52.20
2019-04-11T13:25:38.802Z,51.60
2019-04-11T13:28:43.622Z,51.00
2019-04-11T13:32:24.300Z,49.00
2019-04-11T13:36:03.967Z,47.80
2019-04-11T13:39:07.705Z,49.60
2019-04-11T13:42:40.019Z,50.30
2019-04-11T13:45:55.690Z,48.30
2019-04-11T13:49:15.102Z,48.90
2019-04-11T13:52:37.954Z,51.30
2019-04-11T13:55:42.290Z,50.60
2019-04-11T13:59:04.495Z,47.30
2019-04-11T14:02:15.258Z,49.20
2019-04-11T14:05:18.254Z,47.30
2019-04-11T14:08:25.340Z,48.30
2019-04-11T14:11:28.950Z,48.00
2019-04-11T14:14:39.921Z,48.00
2019-04-11T14:17:57.407Z,47.50
2019-04-11T14:21:06.686Z,46.40
2019-04-11T14:24:42.232Z,48.00
2019-04-11T14:27:45.733Z,48.90
2019-04-11T14:31:07.066Z,47.70
2019-04-11T14:34:32.644Z,49.40
2019-04-11T14:37:41.502Z,47.30
2019-04-11T14:41:01.809Z,47.70
2019-04-11T14:44:05.343Z,48.30
2019-04-11T14:47:34.817Z,46.70
2019-04-11T14:50:53.953Z,48.90
2019-04-11T14:54:03.731Z,47.60
2019-04-11T14:57:25.357Z,48.80
2019-04-11T15:00:39.295Z,48.20
2019-04-11T15:04:06.959Z,47.00
2019-04-11T15:07:12.835Z,47.60
2019-04-11T15:10:45.720Z,48.10
2019-04-11T15:13:53.001Z,48.10
2019-04-11T15:17:09.049Z,48.10
2019-04-11T15:20:34.714Z,47.50
2019-04-11T15:23:43.336Z,46.50
2019-04-11T15:27:12.024Z,48.50
2019-04-11T15:30:16.961Z,48.30
2019-04-11T15:33:38.846Z,49.10
2019-04-11T15:36:47.976Z,49.00
2019-04-11T15:40:01.450Z,48.20
2019-04-11T15:43:42.032Z,47.70
2019-04-11T15:46:47.536Z,48.60
2019-04-11T15:50:09.672Z,47.20
2019-04-11T15:53:17.323Z,46.60
2019-04-11T15:56:41.728Z,47.30
2019-04-11T16:00:03.291Z,48.00
2019-04-11T16:03:15.548Z,45.80
2019-04-11T16:06:38.796Z,47.10
2019-04-11T16:09:42.168Z,47.30
2019-04-11T16:12:52.829Z,47.50
2019-04-11T16:16:05.211Z,47.70
2019-04-11T16:19:26.185Z,47.30
2019-04-11T16:22:47.574Z,48.50
2019-04-11T16:25:52.524Z,48.10
2019-04-11T16:29:14.237Z,49.50
2019-04-11T16:32:17.575Z,49.20
2019-04-11T16:35:29.248Z,50.30
2019-04-11T16:38:38.253Z,49.70
2019-04-11T16:42:01.840Z,49.40
2019-04-11T16:45:39.853Z,48.90
2019-04-11T16:48:42.878Z,49.00
2019-04-11T16:51:45.828Z,49.80
2019-04-11T16:54:48.777Z,49.60
2019-04-11T16:57:52.454Z,49.80
2019-04-11T17:00:56.853Z,49.50
2019-04-11T17:03:59.849Z,49.40
2019-04-11T17:07:15.322Z,49.70
2019-04-11T17:10:19.804Z,49.70
2019-04-11T17:13:23.810Z,48.80
2019-04-11T17:16:30.709Z,49.60
2019-04-11T17:19:35.869Z,50.10
2019-04-11T17:22:38.003Z,50.50
2019-04-11T17:25:41.197Z,50.80
2019-04-11T17:28:44.152Z,50.70
2019-04-11T17:31:47.483Z,51.30
2019-04-11T17:34:50.784Z,50.20
2019-04-11T17:37:54.214Z,51.10
2019-04-11T17:40:57.295Z,51.50
2019-04-11T17:44:00.387Z,50.60
2019-04-11T17:47:03.350Z,51.60
2019-04-11T17:50:07.702Z,50.90
2019-04-11T17:53:10.645Z,50.60
2019-04-11T17:56:13.678Z,51.00
2019-04-11T17:59:16.700Z,51.00
2019-04-11T18:02:19.661Z,51.10
2019-04-11T18:05:22.775Z,51.20
2019-04-11T18:08:26.113Z,51.50
2019-04-11T18:11:29.351Z,51.00
2019-04-11T18:14:33.314Z,51.80
2019-04-11T18:17:36.352Z,52.10
2019-04-11T18:20:41.021Z,52.00
2019-04-11T18:23:44.082Z,51.40
2019-04-11T18:26:47.037Z,51.70
2019-04-11T18:29:52.539Z,52.10
2019-04-11T18:32:54.827Z,53.10
2019-04-11T18:36:01.720Z,53.50
2019-04-11T18:39:05.949Z,53.40
2019-04-11T18:42:09.297Z,53.60
2019-04-11T18:45:14.178Z,53.30
2019-04-11T18:48:17.124Z,54.60
2019-04-11T18:51:20.879Z,53.70
2019-04-11T18:54:24.914Z,54.20
2019-04-11T18:57:28.204Z,54.30
2019-04-11T19:00:31.156Z,54.80
2019-04-11T19:03:36.329Z,54.90
2019-04-11T19:06:42.583Z,54.30
2019-04-11T19:09:45.000Z,55.00
2019-04-11T19:12:47.940Z,54.90
2019-04-11T19:15:50.884Z,55.00
2019-04-11T19:18:53.821Z,55.90
2019-04-11T19:21:56.762Z,55.70
2019-04-11T19:24:59.729Z,55.20
2019-04-11T19:28:02.692Z,55.60
2019-04-11T19:31:05.682Z,55.60
2019-04-11T19:34:09.054Z,55.60
2019-04-11T19:37:12.999Z,55.70
2019-04-11T19:40:16.960Z,55.40
2019-04-11T19:43:20.015Z,55.40
2019-04-11T19:46:22.962Z,55.90
2019-04-11T19:49:28.812Z,55.90
2019-04-11T19:52:32.633Z,55.10
2019-04-11T19:55:54.876Z,55.40
2019-04-11T19:58:57.884Z,55.60
2019-04-11T20:02:01.168Z,56.20
2019-04-11T20:05:04.688Z,56.70
2019-04-11T20:08:07.749Z,56.80
2019-04-11T20:11:10.684Z,57.20
2019-04-11T20:14:13.859Z,57.20
2019-04-11T20:17:19.321Z,57.30
2019-04-11T20:20:21.985Z,57.30
2019-04-11T20:23:25.319Z,57.50
2019-04-11T20:26:28.260Z,57.00
2019-04-11T20:29:31.173Z,57.50
2019-04-11T20:32:34.441Z,57.10
2019-04-11T20:35:40.005Z,57.20
2019-04-11T20:38:44.678Z,57.90
2019-04-11T20:41:53.232Z,57.40
2019-04-11T20:44:58.184Z,57.90
2019-04-11T20:48:00.278Z,58.70
2019-04-11T20:51:04.454Z,58.40
2019-04-11T20:54:07.979Z,58.60
2019-04-11T20:57:12.851Z,58.40
2019-04-11T21:00:16.182Z,59.10
2019-04-11T21:03:19.453Z,58.90
2019-04-11T21:06:22.390Z,59.20
2019-04-11T21:09:25.455Z,59.30
2019-04-11T21:12:28.360Z,58.60
2019-04-11T21:15:31.299Z,59.80
2019-04-11T21:18:34.519Z,59.20
2019-04-11T21:21:37.456Z,59.70
2019-04-11T21:24:40.707Z,60.10
2019-04-11T21:27:43.630Z,59.80
2019-04-11T21:30:46.588Z,59.50
2019-04-11T21:33:49.527Z,60.00
2019-04-11T21:36:52.441Z,59.60
2019-04-11T21:39:55.385Z,60.00
2019-04-11T21:42:58.303Z,60.30
2019-04-11T21:46:04.089Z,60.50
2019-04-11T21:49:07.045Z,60.30
2019-04-11T21:52:12.338Z,60.00
2019-04-11T21:55:16.408Z,61.70
2019-04-11T21:58:20.461Z,61.20
2019-04-11T22:01:24.856Z,61.80
2019-04-11T22:04:31.217Z,61.20
2019-04-11T22:07:34.290Z,61.50
2019-04-11T22:10:40.146Z,62.20
2019-04-11T22:13:42.754Z,62.10
2019-04-11T22:16:45.684Z,62.20
2019-04-11T22:19:48.613Z,63.20
2019-04-11T22:22:51.830Z,62.90
2019-04-11T22:25:54.753Z,63.50
2019-04-11T22:28:57.671Z,62.50
2019-04-11T22:32:00.920Z,62.70
2019-04-11T22:35:04.352Z,63.50
2019-04-11T22:38:07.284Z,63.40
2019-04-11T22:41:10.216Z,64.10
2019-04-11T22:44:13.526Z,64.30
2019-04-11T22:47:16.634Z,63.80
2019-04-11T22:50:19.923Z,63.70
2019-04-11T22:53:23.212Z,63.40
2019-04-11T22:56:26.138Z,64.20
2019-04-11T22:59:29.071Z,64.00
2019-04-11T23:02:39.023Z,63.50
2019-04-11T23:05:41.976Z,64.10
2019-04-11T23:08:48.601Z,63.70
2019-04-11T23:11:50.029Z,63.60
2019-04-11T23:14:52.951Z,63.90
2019-04-11T23:17:56.219Z,64.90
2019-04-11T23:20:59.149Z,64.70
2019-04-11T23:24:11.434Z,64.70
2019-04-11T23:27:06.914Z,65.60
2019-04-11T23:30:12.776Z,66.00
2019-04-11T23:33:16.368Z,65.80
2019-04-11T23:36:21.265Z,66.00
2019-04-11T23:39:25.835Z,65.00
2019-04-11T23:42:29.074Z,66.40
2019-04-11T23:45:32.424Z,65.60
2019-04-11T23:48:36.013Z,66.30
2019-04-11T23:51:39.355Z,66.10
2019-04-11T23:54:42.626Z,65.60
2019-04-11T23:57:45.556Z,66.40
